Airfield :
LOGIN :

Register | Disclaimer

   EN    FR    IT 

 










Legend :    VFR   Marginal VFR   IFR   Intensive IFR   Very Intensive IFR
Visi :
Ceiling :
>= 8 km
>= 3000ft
5 to 8 km
1000 to 3000 ft
1500m to 5 km
500 to 1000 ft
800 to 1500m
200 to 500 ft
< 800m
< 200 ft
Symbols :   Thunderstorms  Fog  Heavy snow  Heavy precipitations  Wind > 20 kt
SIGMETs :     Misc.  Thunderstorms  Icing  Turbulence  Mountain Waves  Volcanic Ashes






- Airport Elevation : 1521 ft
- IATA code : NCY


LFLP - Annecy

CURRENT METAR :
  • 222230Z AUTO VRB03KT 9999 SN BKN008 OVC013 01/00 Q1003

EXPIRED METARs :
  • 222200Z AUTO 20006KT 9000 SN SCT009 BKN016 OVC022 01/01 Q1002
  • 222130Z AUTO 27008KT 240V300 9999 -SNRA OVC017 02/00 Q1001
  • 222100Z AUTO 27011KT 9999 -SNRA FEW012 BKN020 OVC026 02/00 Q1001
  • 222030Z AUTO 26009KT 210V320 6000 -SN BKN014 BKN021 OVC031 02/01 Q0999
  • 222000Z AUTO 26012KT 230V300 8000 -RA OVC016 04/02 Q0998 TEMPO 3000 -SN BKN004 OVC020

TAF TAF LFLP
Valid from the 22 at 15:00 until the 23 at 15:00 UTC


221400Z 2215/2315 20010KT 6000 -RA SCT020 OVC050
TEMPO 2215/2219 3000 RA BKN009 OVC020
FM221900 VRB05KT 6000 -RASN SCT009 OVC020
PROB40
TEMPO 2219/2303 3000 -SN BKN004 OVC020
FM230300 VRB05KT 9999 BKN040
TEMPO 2311/2315 20012KT -RA



MET'MAP, your aeronautical weather chart ! - Copyright ORBIFLY December 2007 - Disclaimer

ORBIFLY MET'MAP TEAM :

Programming & Development : Alexandra Zaïnal
Concept & original design : Baudouin d'Aumeries
Assistance for programming : Marc-Olivier Méhu
Technical & hardware support : Manuel Goepfert

Contact : metmap@orbifly.com




SOURCES & CREDITS :

   NOAA